Time;durP1;ratioP1;P1;durP2;ratioP2;P2;SDS_P1;SDS_P2;PMS_P1;PMS_P2;Temp;Humidity;BMP_temperature;BMP_pressure;BME280_temperature;BME280_humidity;BME280_pressure;Samples;Min_cycle;Max_cycle;Signal;HPM_P1;HPM_P2
2024/03/19 00:02:57;;;;;;;;;;;;;;;12.51;41.54;99190.27;68295;1283;1016004;-69
2024/03/19 00:05:59;;;;;;;;;;;;;;;12.69;41.24;99189.66;68282;1283;1015858;-69
2024/03/19 00:09:03;;;;;;;;;;;;;;;12.77;41.41;99192.30;68282;1283;1015930;-62
2024/03/19 00:12:06;;;;;;;;;;;;;;;13.00;40.93;99193.27;68287;1283;1015219;-67
2024/03/19 00:15:09;;;;;;;;;;;;;;;13.06;40.78;99197.07;68283;1283;1016253;-69
2024/03/19 00:18:11;;;;;;;;;;;;;;;13.13;40.66;99201.59;68279;1283;1014611;-66
2024/03/19 00:21:14;;;;;;;;;;;;;;;13.08;40.81;99198.57;68279;1283;1016230;-69
2024/03/19 00:24:18;;;;;;;;;;;;;;;13.12;40.60;99194.80;68283;1283;1016035;-69
2024/03/19 00:27:22;;;;;;;;;;;;;;;13.20;40.64;99199.04;68286;1283;1015629;-62
2024/03/19 00:30:25;;;;;;;;;;;;;;;13.41;40.33;99196.95;68290;1283;1014864;-69
2024/03/19 00:33:27;;;;;;;;;;;;;;;13.40;40.13;99198.05;68290;1283;1015807;-69
2024/03/19 00:36:30;;;;;;;;;;;;;;;13.37;40.25;99197.20;68292;1283;1016043;-69
2024/03/19 00:39:33;;;;;;;;;;;;;;;13.52;39.99;99201.48;68279;1283;1015765;-69
2024/03/19 00:42:36;;;;;;;;;;;;;;;13.45;39.85;99202.64;68276;1283;1016155;-62
2024/03/19 00:45:38;;;;;;;;;;;;;;;13.28;40.20;99201.15;68294;1283;1016095;-69
2024/03/19 00:48:41;;;;;;;;;;;;;;;12.96;40.85;99202.48;68292;1283;1015554;-62
2024/03/19 00:51:43;;;;;;;;;;;;;;;12.99;40.81;99204.56;68280;1283;1015265;-69
2024/03/19 00:54:46;;;;;;;;;;;;;;;13.10;40.49;99204.70;68282;1283;1015678;-69
2024/03/19 00:57:48;;;;;;;;;;;;;;;13.00;40.76;99202.92;68289;1283;1015858;-62
2024/03/19 01:00:51;;;;;;;;;;;;;;;12.94;40.64;99199.28;68277;1283;1015944;-69
2024/03/19 01:03:53;;;;;;;;;;;;;;;12.82;40.87;99200.89;68294;1283;1016253;-69
2024/03/19 01:06:56;;;;;;;;;;;;;;;12.64;41.26;99201.55;68276;1283;1016139;-62
2024/03/19 01:09:59;;;;;;;;;;;;;;;12.63;41.29;99203.89;68285;1283;1015615;-67
2024/03/19 01:13:01;;;;;;;;;;;;;;;12.57;41.35;99200.21;68292;1283;1016028;-69
2024/03/19 01:16:04;;;;;;;;;;;;;;;12.67;41.13;99207.50;68283;1283;1015661;-63
2024/03/19 01:19:07;;;;;;;;;;;;;;;12.68;41.22;99206.17;68290;1283;1015971;-69
2024/03/19 01:22:09;;;;;;;;;;;;;;;12.73;41.21;99211.14;68286;1283;1016058;-63
2024/03/19 01:25:12;;;;;;;;;;;;;;;12.74;41.13;99210.19;68295;1283;1016046;-69
2024/03/19 01:28:15;;;;;;;;;;;;;;;12.81;41.03;99209.74;68289;1283;1015999;-69
2024/03/19 01:31:17;;;;;;;;;;;;;;;12.68;41.38;99207.75;68278;1283;1016277;-62
2024/03/19 01:34:19;;;;;;;;;;;;;;;12.52;41.51;99207.56;68298;1283;1016040;-69
2024/03/19 01:37:22;;;;;;;;;;;;;;;12.64;41.32;99206.09;68290;1283;1016108;-69
2024/03/19 01:40:24;;;;;;;;;;;;;;;12.78;41.28;99205.61;68293;1283;1016202;-69
2024/03/19 01:43:27;;;;;;;;;;;;;;;12.83;41.21;99199.13;68283;1283;1015266;-69
2024/03/19 01:46:29;;;;;;;;;;;;;;;12.81;41.30;99203.46;68292;1283;1014999;-62
2024/03/19 01:49:32;;;;;;;;;;;;;;;12.82;41.26;99202.98;68290;1283;1016233;-63
2024/03/19 01:52:34;;;;;;;;;;;;;;;12.90;41.19;99202.55;68282;1283;1016177;-69
2024/03/19 01:55:37;;;;;;;;;;;;;;;12.91;41.25;99204.23;68280;1283;1014375;-69
2024/03/19 01:58:39;;;;;;;;;;;;;;;12.86;41.33;99203.84;68288;1283;1015456;-70
2024/03/19 02:01:42;;;;;;;;;;;;;;;12.86;41.33;99205.61;68283;1283;1015935;-69
2024/03/19 02:04:44;;;;;;;;;;;;;;;12.86;41.36;99203.88;68296;1283;1015906;-69
2024/03/19 02:07:46;;;;;;;;;;;;;;;12.92;41.41;99204.02;68295;1283;1015805;-69
2024/03/19 02:10:49;;;;;;;;;;;;;;;12.94;41.32;99207.17;68287;1283;1014750;-69
2024/03/19 02:13:51;;;;;;;;;;;;;;;12.83;41.42;99206.81;68289;1283;1016186;-62
2024/03/19 02:16:54;;;;;;;;;;;;;;;12.67;41.53;99206.98;68278;1283;1015623;-63
2024/03/19 02:19:57;;;;;;;;;;;;;;;12.40;42.09;99212.02;68278;1283;1015590;-69
2024/03/19 02:22:59;;;;;;;;;;;;;;;12.35;42.29;99212.84;68287;1283;1015387;-69
2024/03/19 02:26:02;;;;;;;;;;;;;;;12.44;42.13;99215.99;68294;1283;1015192;-69
2024/03/19 02:29:04;;;;;;;;;;;;;;;12.62;41.81;99215.56;68277;1283;1016032;-69
2024/03/19 02:32:06;;;;;;;;;;;;;;;12.79;41.74;99215.34;68287;1283;1015445;-69
2024/03/19 02:35:09;;;;;;;;;;;;;;;12.99;41.40;99221.09;68290;1283;1015834;-69
2024/03/19 02:38:11;;;;;;;;;;;;;;;13.05;41.35;99225.98;68289;1283;1016174;-69
2024/03/19 02:41:14;;;;;;;;;;;;;;;13.16;41.34;99226.84;68282;1283;1015980;-62
2024/03/19 02:44:16;;;;;;;;;;;;;;;13.20;41.20;99230.45;68281;1283;1015694;-63
2024/03/19 02:47:20;;;;;;;;;;;;;;;13.13;41.03;99229.29;68288;1283;1015526;-65
2024/03/19 02:50:22;;;;;;;;;;;;;;;12.92;41.53;99229.10;68279;1283;1015133;-69
2024/03/19 02:53:26;;;;;;;;;;;;;;;12.90;41.54;99230.99;68276;1283;1015761;-69
2024/03/19 02:56:29;;;;;;;;;;;;;;;12.95;41.43;99234.35;68294;1283;1015878;-62
2024/03/19 02:59:32;;;;;;;;;;;;;;;12.88;41.66;99244.25;68275;1283;1016072;-69
2024/03/19 03:02:34;;;;;;;;;;;;;;;12.85;41.49;99249.50;68290;1283;1015583;-62
2024/03/19 03:05:37;;;;;;;;;;;;;;;12.75;41.83;99249.46;68286;1283;1015935;-70
2024/03/19 03:08:39;;;;;;;;;;;;;;;12.82;41.65;99253.08;68281;1283;1015394;-63
2024/03/19 03:11:42;;;;;;;;;;;;;;;12.80;41.53;99254.91;68284;1283;1014617;-64
2024/03/19 03:14:44;;;;;;;;;;;;;;;12.80;41.75;99255.83;68277;1283;1015875;-69
2024/03/19 03:17:47;;;;;;;;;;;;;;;12.91;41.37;99259.54;68279;1283;1016086;-62
2024/03/19 03:20:49;;;;;;;;;;;;;;;12.63;41.85;99261.05;68291;1283;1014744;-69
2024/03/19 03:23:52;;;;;;;;;;;;;;;12.25;42.84;99259.90;68292;1283;1015291;-63
2024/03/19 03:26:54;;;;;;;;;;;;;;;12.52;42.28;99259.52;68286;1283;1016116;-69
2024/03/19 03:29:57;;;;;;;;;;;;;;;12.56;42.11;99260.30;68274;1283;1015550;-69
2024/03/19 03:32:59;;;;;;;;;;;;;;;12.25;42.51;99269.02;68292;1283;1015785;-69
2024/03/19 03:36:02;;;;;;;;;;;;;;;12.11;42.98;99267.61;68285;1283;1016188;-69
2024/03/19 03:39:05;;;;;;;;;;;;;;;12.04;42.75;99271.66;68290;1283;1016157;-69
2024/03/19 03:42:08;;;;;;;;;;;;;;;11.89;43.01;99273.10;68277;1283;1015529;-69
2024/03/19 03:45:11;;;;;;;;;;;;;;;12.01;42.69;99279.77;68285;1283;1016188;-69
2024/03/19 03:48:13;;;;;;;;;;;;;;;11.98;42.69;99278.49;68271;1283;1015577;-69
2024/03/19 03:51:17;;;;;;;;;;;;;;;12.07;42.47;99281.33;68286;1283;1015604;-64
2024/03/19 03:54:19;;;;;;;;;;;;;;;11.88;42.17;99285.90;68273;1283;1015586;-66
2024/03/19 03:57:21;;;;;;;;;;;;;;;11.73;42.63;99291.37;68293;1283;1016335;-69
2024/03/19 04:00:24;;;;;;;;;;;;;;;11.88;41.95;99293.29;68290;1283;1014816;-69
2024/03/19 04:03:27;;;;;;;;;;;;;;;11.87;41.67;99297.73;68290;1283;1015663;-70
2024/03/19 04:06:29;;;;;;;;;;;;;;;11.53;42.28;99297.94;68297;1283;1015232;-69
2024/03/19 04:09:32;;;;;;;;;;;;;;;11.59;42.29;99300.55;68281;1283;1015250;-69
2024/03/19 04:12:34;;;;;;;;;;;;;;;11.38;42.63;99303.84;68290;1283;1015507;-62
2024/03/19 04:15:37;;;;;;;;;;;;;;;11.61;42.31;99310.96;68291;1283;1016200;-69
2024/03/19 04:18:40;;;;;;;;;;;;;;;11.73;41.87;99312.17;68281;1283;1015696;-62
2024/03/19 04:21:42;;;;;;;;;;;;;;;11.85;41.51;99310.50;68277;1283;1015720;-69
2024/03/19 04:24:44;;;;;;;;;;;;;;;11.79;41.65;99312.38;68290;1283;1014325;-70
2024/03/19 04:27:47;;;;;;;;;;;;;;;11.80;41.35;99315.84;68278;1283;1015917;-69
2024/03/19 04:30:49;;;;;;;;;;;;;;;11.81;41.47;99314.53;68269;1283;1015561;-70
2024/03/19 04:33:52;;;;;;;;;;;;;;;11.67;41.55;99314.97;68283;1283;1016275;-65
2024/03/19 04:36:54;;;;;;;;;;;;;;;11.52;41.84;99316.71;68279;1283;1015472;-69
2024/03/19 04:39:57;;;;;;;;;;;;;;;11.65;41.69;99316.52;68283;1283;1014311;-65
2024/03/19 04:43:00;;;;;;;;;;;;;;;11.70;41.56;99319.73;68278;1283;1015080;-66
2024/03/19 04:46:02;;;;;;;;;;;;;;;11.57;41.52;99318.56;68283;1283;1015655;-69
2024/03/19 04:49:06;;;;;;;;;;;;;;;11.62;41.16;99321.09;68291;1283;1015989;-69
2024/03/19 04:52:08;;;;;;;;;;;;;;;11.67;41.03;99320.59;68286;1283;1015880;-70
2024/03/19 04:55:11;;;;;;;;;;;;;;;11.69;40.95;99323.48;68278;1283;1015993;-70
2024/03/19 04:58:13;;;;;;;;;;;;;;;11.51;41.02;99325.71;68282;1283;1015587;-69
2024/03/19 05:01:15;;;;;;;;;;;;;;;11.40;41.11;99327.40;68278;1283;1014997;-69
2024/03/19 05:04:18;;;;;;;;;;;;;;;11.34;41.24;99328.80;68277;1283;1015585;-63
2024/03/19 05:07:20;;;;;;;;;;;;;;;11.30;41.22;99335.64;68267;1283;1015629;-69
2024/03/19 05:10:23;;;;;;;;;;;;;;;11.23;40.84;99339.52;68274;1283;1016018;-69
2024/03/19 05:13:25;;;;;;;;;;;;;;;11.10;40.99;99339.19;68287;1283;1015776;-70
2024/03/19 05:16:28;;;;;;;;;;;;;;;11.05;41.00;99343.31;68289;1283;1015884;-69
2024/03/19 05:19:30;;;;;;;;;;;;;;;11.22;41.04;99350.76;68272;1283;1016373;-69
2024/03/19 05:22:33;;;;;;;;;;;;;;;11.46;40.64;99357.55;68283;1283;1015221;-69
2024/03/19 05:25:36;;;;;;;;;;;;;;;11.70;40.62;99365.10;66005;1282;5390368;-70
2024/03/19 05:28:39;;;;;;;;;;;;;;;11.90;40.54;99365.35;68282;1282;1015795;-69
2024/03/19 05:31:41;;;;;;;;;;;;;;;11.72;40.57;99370.44;68279;1283;1016137;-63
2024/03/19 05:34:44;;;;;;;;;;;;;;;11.61;40.37;99374.51;68280;1283;1015373;-69
2024/03/19 05:37:47;;;;;;;;;;;;;;;11.85;39.90;99375.30;68286;1283;1015552;-67
2024/03/19 05:40:50;;;;;;;;;;;;;;;11.97;40.23;99379.17;68287;1283;1015858;-70
2024/03/19 05:43:52;;;;;;;;;;;;;;;12.16;40.08;99386.68;68289;1283;1015770;-63
2024/03/19 05:46:54;;;;;;;;;;;;;;;12.28;39.31;99386.15;68284;1283;1016461;-69
2024/03/19 05:49:57;;;;;;;;;;;;;;;12.36;39.51;99382.02;68266;1283;1015577;-65
2024/03/19 05:52:59;;;;;;;;;;;;;;;12.37;39.39;99389.66;68286;1283;1014189;-69
2024/03/19 05:56:02;;;;;;;;;;;;;;;12.42;39.36;99389.69;68284;1283;1015205;-69
2024/03/19 05:59:04;;;;;;;;;;;;;;;12.26;39.74;99396.42;68278;1283;1015869;-62
2024/03/19 06:02:07;;;;;;;;;;;;;;;12.36;39.56;99397.10;68285;1283;1015830;-69
2024/03/19 06:05:11;;;;;;;;;;;;;;;12.52;39.58;99397.39;68274;1283;1015282;-69
2024/03/19 06:08:14;;;;;;;;;;;;;;;12.61;39.40;99393.51;68285;1283;1015853;-70
2024/03/19 06:11:16;;;;;;;;;;;;;;;12.54;39.46;99396.38;68283;1283;1015931;-67
2024/03/19 06:14:19;;;;;;;;;;;;;;;12.49;39.76;99397.86;68277;1283;1017127;-64
2024/03/19 06:17:22;;;;;;;;;;;;;;;12.57;39.90;99399.33;68289;1283;1016035;-69
2024/03/19 06:20:25;;;;;;;;;;;;;;;12.79;39.61;99401.69;68278;1283;1015648;-69
2024/03/19 06:23:27;;;;;;;;;;;;;;;12.86;39.15;99396.34;68295;1283;1015150;-62
2024/03/19 06:26:30;;;;;;;;;;;;;;;12.93;39.22;99399.77;68293;1283;1015104;-69
2024/03/19 06:29:32;;;;;;;;;;;;;;;13.09;38.86;99399.38;68292;1283;1015570;-63
2024/03/19 06:32:35;;;;;;;;;;;;;;;13.10;38.52;99399.30;68291;1283;1015984;-69
2024/03/19 06:35:38;;;;;;;;;;;;;;;13.32;37.85;99403.18;68273;1283;1016021;-70
2024/03/19 06:38:40;;;;;;;;;;;;;;;13.30;37.74;99402.95;68282;1283;1015804;-69
2024/03/19 06:41:43;;;;;;;;;;;;;;;13.40;37.97;99404.64;68290;1283;1015410;-69
2024/03/19 06:44:45;;;;;;;;;;;;;;;13.54;37.89;99405.82;68285;1283;1015508;-68
2024/03/19 06:47:48;;;;;;;;;;;;;;;13.88;37.79;99403.17;68275;1283;1015566;-69
2024/03/19 06:50:51;;;;;;;;;;;;;;;14.08;36.94;99409.77;68276;1283;1015380;-69
2024/03/19 06:53:53;;;;;;;;;;;;;;;14.14;37.39;99412.15;68278;1283;1015012;-69
2024/03/19 06:56:56;;;;;;;;;;;;;;;14.27;37.24;99418.55;68286;1283;1015501;-69
2024/03/19 06:59:58;;;;;;;;;;;;;;;14.14;36.81;99417.25;68271;1283;1015325;-66
2024/03/19 07:06:21;;;;;;;;;;;;;;;14.36;36.58;99424.58;68282;1283;1015354;-69
2024/03/19 07:09:24;;;;;;;;;;;;;;;14.32;36.66;99423.98;68282;1283;1015505;-69
2024/03/19 07:12:27;;;;;;;;;;;;;;;14.40;36.77;99427.34;68270;1283;1015463;-69
2024/03/19 07:15:29;;;;;;;;;;;;;;;14.45;36.67;99425.05;68289;1283;1016235;-69
2024/03/19 07:18:32;;;;;;;;;;;;;;;14.59;36.86;99423.23;68285;1283;1015849;-63
2024/03/19 07:21:35;;;;;;;;;;;;;;;14.86;36.67;99429.34;68296;1283;1015181;-69
2024/03/19 07:24:37;;;;;;;;;;;;;;;14.80;36.14;99430.85;68283;1283;1015420;-69
2024/03/19 07:27:41;;;;;;;;;;;;;;;14.74;36.20;99431.71;68289;1283;1015611;-69
2024/03/19 07:30:43;;;;;;;;;;;;;;;14.77;35.71;99441.05;68275;1283;1015798;-69
2024/03/19 07:33:46;;;;;;;;;;;;;;;14.78;36.12;99436.09;68278;1283;1015254;-69
2024/03/19 07:36:50;;;;;;;;;;;;;;;14.95;35.80;99443.35;68280;1283;1016122;-69
2024/03/19 07:39:53;;;;;;;;;;;;;;;15.43;35.44;99442.98;68294;1283;1015449;-68
2024/03/19 07:42:56;;;;;;;;;;;;;;;15.71;35.85;99444.35;68289;1283;1015574;-69
2024/03/19 07:45:59;;;;;;;;;;;;;;;15.88;35.15;99453.70;68289;1283;1015917;-69
2024/03/19 07:49:01;;;;;;;;;;;;;;;15.59;35.19;99454.32;68297;1283;1015981;-70
2024/03/19 07:52:04;;;;;;;;;;;;;;;15.50;34.70;99457.33;68293;1283;1016544;-69
2024/03/19 07:55:07;;;;;;;;;;;;;;;15.31;35.27;99460.73;68310;1283;1014850;-68
2024/03/19 07:58:09;;;;;;;;;;;;;;;15.23;35.33;99462.69;68277;1283;1015448;-69
2024/03/19 08:01:12;;;;;;;;;;;;;;;14.94;35.37;99464.74;68299;1283;1015942;-69
2024/03/19 08:04:15;;;;;;;;;;;;;;;14.68;35.15;99466.48;68295;1283;1016118;-69
2024/03/19 08:07:17;;;;;;;;;;;;;;;14.61;35.60;99466.07;68287;1283;1015022;-63
2024/03/19 08:10:20;;;;;;;;;;;;;;;14.92;35.54;99463.27;68290;1283;1015695;-63
2024/03/19 08:13:22;;;;;;;;;;;;;;;15.38;34.73;99463.79;68295;1283;1015274;-63
2024/03/19 08:16:25;;;;;;;;;;;;;;;15.76;34.47;99463.41;68291;1283;1015321;-69
2024/03/19 08:19:28;;;;;;;;;;;;;;;15.96;34.57;99463.50;68291;1283;1015293;-69
2024/03/19 08:22:31;;;;;;;;;;;;;;;16.04;34.11;99465.09;68290;1283;1015790;-68
2024/03/19 08:25:33;;;;;;;;;;;;;;;16.14;34.10;99459.58;68289;1283;1015676;-69
2024/03/19 08:28:36;;;;;;;;;;;;;;;16.23;33.98;99460.48;68291;1283;1016292;-69
2024/03/19 08:31:38;;;;;;;;;;;;;;;16.60;33.99;99460.73;68287;1283;1016030;-68
2024/03/19 08:34:41;;;;;;;;;;;;;;;16.59;33.46;99458.84;68286;1283;1015272;-66
2024/03/19 08:37:46;;;;;;;;;;;;;;;16.61;33.41;99459.78;68282;1283;1016068;-69
2024/03/19 08:40:49;;;;;;;;;;;;;;;16.27;33.60;99458.77;68287;1283;1014959;-69
2024/03/19 08:43:52;;;;;;;;;;;;;;;16.07;33.69;99458.66;68277;1283;1015361;-69
2024/03/19 08:46:55;;;;;;;;;;;;;;;15.87;33.72;99460.27;68286;1283;1016142;-69
2024/03/19 08:49:57;;;;;;;;;;;;;;;15.11;34.57;99466.55;68289;1283;1016062;-68
2024/03/19 08:53:00;;;;;;;;;;;;;;;14.81;34.51;99468.21;68279;1283;1016484;-63
2024/03/19 08:56:02;;;;;;;;;;;;;;;14.81;34.91;99464.20;68283;1283;1014348;-69
2024/03/19 08:59:05;;;;;;;;;;;;;;;15.18;34.85;99461.33;68289;1283;1015498;-69
2024/03/19 09:02:07;;;;;;;;;;;;;;;15.72;34.81;99462.62;68283;1283;1015232;-69
2024/03/19 09:05:11;;;;;;;;;;;;;;;15.61;34.26;99464.79;68298;1283;1015176;-69
2024/03/19 09:08:14;;;;;;;;;;;;;;;15.54;34.86;99467.91;68293;1283;1016016;-69
2024/03/19 09:11:17;;;;;;;;;;;;;;;15.78;34.66;99465.02;68276;1283;1016075;-65
2024/03/19 09:14:19;;;;;;;;;;;;;;;17.16;34.25;99459.27;68281;1283;1016190;-63
2024/03/19 09:20:42;;;;;;;;;;;;;;;17.51;33.93;99456.73;68280;1283;1015464;-69
2024/03/19 09:23:44;;;;;;;;;;;;;;;18.46;32.90;99455.39;68302;1283;1016015;-63
2024/03/19 09:26:48;;;;;;;;;;;;;;;18.42;31.81;99455.05;68288;1283;1015693;-64
2024/03/19 09:29:51;;;;;;;;;;;;;;;18.38;31.86;99454.27;68286;1283;1015486;-69
2024/03/19 09:32:54;;;;;;;;;;;;;;;18.42;31.93;99453.80;68299;1283;1015782;-69
2024/03/19 09:35:56;;;;;;;;;;;;;;;18.87;30.01;99450.58;68295;1283;1016205;-68
2024/03/19 09:38:59;;;;;;;;;;;;;;;19.04;30.84;99459.19;68279;1283;1016011;-68
2024/03/19 09:42:01;;;;;;;;;;;;;;;18.59;30.94;99461.58;68281;1283;1015476;-69
2024/03/19 09:45:04;;;;;;;;;;;;;;;18.42;30.70;99459.23;68294;1283;1015443;-68
2024/03/19 09:48:06;;;;;;;;;;;;;;;17.60;31.25;99462.38;68286;1283;1015230;-69
2024/03/19 09:51:10;;;;;;;;;;;;;;;17.00;31.24;99460.73;68283;1283;1016117;-68
2024/03/19 09:54:13;;;;;;;;;;;;;;;17.42;31.52;99459.04;68300;1283;1016175;-69
2024/03/19 09:57:15;;;;;;;;;;;;;;;17.67;31.30;99458.64;68279;1283;1015396;-69
2024/03/19 10:00:18;;;;;;;;;;;;;;;17.86;30.94;99459.24;68293;1283;1015370;-66
2024/03/19 10:03:21;;;;;;;;;;;;;;;18.09;30.08;99461.47;68297;1283;1015377;-69
2024/03/19 10:06:23;;;;;;;;;;;;;;;18.13;29.01;99464.86;68293;1283;1015855;-69
2024/03/19 10:09:26;;;;;;;;;;;;;;;18.06;29.52;99462.11;68287;1283;1016101;-69
2024/03/19 10:12:28;;;;;;;;;;;;;;;18.16;30.23;99461.12;68287;1283;1015786;-69
2024/03/19 10:15:31;;;;;;;;;;;;;;;18.67;30.16;99461.66;68300;1283;1015757;-69
2024/03/19 10:18:33;;;;;;;;;;;;;;;18.94;29.63;99463.44;68286;1283;1015978;-69
2024/03/19 10:21:36;;;;;;;;;;;;;;;18.77;29.77;99463.98;68293;1283;1014612;-68
2024/03/19 10:24:38;;;;;;;;;;;;;;;18.69;29.66;99464.48;68299;1283;1015644;-69
2024/03/19 10:27:41;;;;;;;;;;;;;;;18.27;29.75;99464.42;68294;1283;1015683;-69
2024/03/19 10:30:43;;;;;;;;;;;;;;;18.04;30.08;99473.77;68289;1283;1016077;-69
2024/03/19 10:33:46;;;;;;;;;;;;;;;17.90;30.26;99474.16;68291;1283;1016060;-69
2024/03/19 10:36:49;;;;;;;;;;;;;;;17.90;30.00;99475.95;68300;1283;1015421;-68
2024/03/19 10:39:51;;;;;;;;;;;;;;;17.94;30.03;99479.98;68274;1283;1016152;-68
2024/03/19 10:42:54;;;;;;;;;;;;;;;17.99;29.93;99481.91;68289;1283;1015452;-69
2024/03/19 10:45:57;;;;;;;;;;;;;;;18.04;30.25;99479.27;68288;1283;1016112;-69
2024/03/19 10:48:59;;;;;;;;;;;;;;;17.92;29.88;99475.71;68291;1283;1016266;-69
2024/03/19 10:52:02;;;;;;;;;;;;;;;17.50;30.04;99473.09;68292;1283;1015977;-69
2024/03/19 10:55:04;;;;;;;;;;;;;;;17.32;30.34;99474.83;68284;1283;1015573;-64
2024/03/19 10:58:07;;;;;;;;;;;;;;;17.35;31.04;99477.78;68288;1283;1016113;-68
2024/03/19 11:01:09;;;;;;;;;;;;;;;17.59;30.51;99475.90;68274;1283;1015823;-69
2024/03/19 11:04:12;;;;;;;;;;;;;;;17.76;30.79;99477.90;68291;1283;1015857;-69
2024/03/19 11:07:14;;;;;;;;;;;;;;;17.55;30.37;99477.67;68293;1283;1016258;-68
2024/03/19 11:10:16;;;;;;;;;;;;;;;17.60;30.58;99474.61;68300;1283;1016035;-69
2024/03/19 11:13:21;;;;;;;;;;;;;;;17.71;30.16;99474.59;68276;1283;1015296;-69
2024/03/19 11:16:23;;;;;;;;;;;;;;;17.64;30.29;99474.95;68305;1283;1016097;-69
2024/03/19 11:19:26;;;;;;;;;;;;;;;17.59;30.14;99476.43;68302;1283;1014573;-68
2024/03/19 11:22:28;;;;;;;;;;;;;;;17.65;30.64;99475.62;68304;1283;1015420;-68
2024/03/19 11:25:31;;;;;;;;;;;;;;;17.45;29.91;99477.56;68306;1283;1015579;-69
2024/03/19 11:28:34;;;;;;;;;;;;;;;17.48;30.36;99475.38;68305;1283;1015500;-69
2024/03/19 11:31:36;;;;;;;;;;;;;;;18.22;30.28;99474.88;68291;1283;1014680;-68
2024/03/19 11:34:39;;;;;;;;;;;;;;;18.87;29.20;99468.64;68301;1283;1015636;-70
2024/03/19 11:37:41;;;;;;;;;;;;;;;19.25;29.14;99478.52;68293;1283;1015455;-69
2024/03/19 11:40:44;;;;;;;;;;;;;;;18.98;29.77;99481.73;68301;1283;1014377;-69
2024/03/19 11:43:46;;;;;;;;;;;;;;;18.91;29.20;99483.55;68299;1283;1015487;-68
2024/03/19 11:46:49;;;;;;;;;;;;;;;19.12;29.65;99477.89;68280;1283;1015478;-69
2024/03/19 11:49:53;;;;;;;;;;;;;;;19.16;29.47;99476.08;68287;1283;1015369;-69
2024/03/19 11:52:56;;;;;;;;;;;;;;;19.06;29.94;99475.71;68301;1283;1016543;-69
2024/03/19 11:55:58;;;;;;;;;;;;;;;19.26;29.65;99471.87;68287;1283;1015443;-69
2024/03/19 11:59:01;;;;;;;;;;;;;;;19.72;28.40;99469.77;68285;1283;1015963;-69
2024/03/19 12:02:03;;;;;;;;;;;;;;;19.93;28.77;99468.33;68293;1283;1015972;-69
2024/03/19 12:05:06;;;;;;;;;;;;;;;19.78;27.66;99474.73;68288;1283;1015955;-69
2024/03/19 12:08:08;;;;;;;;;;;;;;;19.72;28.01;99464.29;68293;1283;1015697;-65
2024/03/19 12:11:11;;;;;;;;;;;;;;;19.51;27.65;99465.79;68289;1283;1015457;-69
2024/03/19 12:14:14;;;;;;;;;;;;;;;19.34;28.08;99461.02;68297;1283;1015192;-69
2024/03/19 12:17:16;;;;;;;;;;;;;;;19.19;28.65;99457.73;68284;1283;1016193;-69
2024/03/19 12:20:18;;;;;;;;;;;;;;;19.47;28.83;99456.17;68285;1283;1015582;-69
2024/03/19 12:23:22;;;;;;;;;;;;;;;19.77;28.05;99458.38;68290;1283;1016189;-64
2024/03/19 12:26:24;;;;;;;;;;;;;;;19.20;28.29;99470.60;68293;1283;1016275;-69
2024/03/19 12:29:26;;;;;;;;;;;;;;;18.87;28.53;99472.20;68294;1283;1015439;-69
2024/03/19 12:32:47;;;;;;;;;;;;;;;18.72;28.42;99473.02;68301;1283;1014401;-69
2024/03/19 12:35:49;;;;;;;;;;;;;;;18.81;28.96;99469.70;68298;1283;1015555;-69
2024/03/19 12:38:54;;;;;;;;;;;;;;;18.86;28.68;99468.88;68284;1283;1016136;-69
2024/03/19 12:41:56;;;;;;;;;;;;;;;19.16;28.83;99459.38;68286;1283;1016843;-68
2024/03/19 12:44:59;;;;;;;;;;;;;;;19.88;28.13;99445.35;68294;1283;1015718;-68
2024/03/19 12:48:01;;;;;;;;;;;;;;;20.61;27.32;99435.32;68289;1283;1015505;-69
2024/03/19 12:51:04;;;;;;;;;;;;;;;21.07;27.02;99431.42;68291;1283;1015427;-69
2024/03/19 12:54:06;;;;;;;;;;;;;;;20.91;26.89;99431.11;68303;1283;1016026;-69
2024/03/19 12:57:09;;;;;;;;;;;;;;;21.19;26.99;99429.73;68292;1283;1014509;-69
2024/03/19 13:00:11;;;;;;;;;;;;;;;21.38;27.12;99423.98;68296;1283;1016033;-69
2024/03/19 13:03:14;;;;;;;;;;;;;;;21.03;26.71;99434.94;68293;1283;1015443;-69
2024/03/19 13:06:16;;;;;;;;;;;;;;;20.45;26.70;99429.30;68299;1283;1015456;-69
2024/03/19 13:09:22;;;;;;;;;;;;;;;19.88;27.18;99428.66;68284;1283;1014746;-66
2024/03/19 13:12:26;;;;;;;;;;;;;;;19.76;27.18;99426.14;68289;1283;1014807;-69
2024/03/19 13:15:29;;;;;;;;;;;;;;;20.04;27.26;99422.04;68291;1283;1015934;-69
2024/03/19 13:18:31;;;;;;;;;;;;;;;20.35;27.14;99420.53;68291;1283;1015872;-67
2024/03/19 13:21:34;;;;;;;;;;;;;;;20.69;26.62;99415.02;68281;1283;1015173;-68
2024/03/19 13:24:36;;;;;;;;;;;;;;;20.79;26.61;99412.73;68286;1283;1016149;-69
2024/03/19 13:27:39;;;;;;;;;;;;;;;20.83;26.27;99411.98;68284;1283;1015184;-63
2024/03/19 13:30:41;;;;;;;;;;;;;;;20.76;26.68;99414.04;68291;1283;1015908;-69
2024/03/19 13:33:44;;;;;;;;;;;;;;;21.07;26.61;99416.09;68296;1283;1015835;-69
2024/03/19 13:36:47;;;;;;;;;;;;;;;20.46;26.34;99417.13;68295;1283;1015822;-69
2024/03/19 13:39:50;;;;;;;;;;;;;;;19.90;26.67;99413.77;68302;1283;1015914;-69
2024/03/19 13:42:52;;;;;;;;;;;;;;;19.33;27.24;99420.60;68278;1283;1015447;-69
2024/03/19 13:45:55;;;;;;;;;;;;;;;19.30;27.74;99419.02;68290;1283;1015875;-69
2024/03/19 13:48:57;;;;;;;;;;;;;;;19.60;27.39;99415.35;68292;1283;1016239;-69
2024/03/19 13:52:00;;;;;;;;;;;;;;;20.04;27.18;99410.56;68291;1283;1015231;-69
2024/03/19 13:55:02;;;;;;;;;;;;;;;20.22;26.37;99407.34;68278;1283;1016163;-69
2024/03/19 13:58:05;;;;;;;;;;;;;;;20.25;26.63;99409.14;68287;1283;1015997;-69
2024/03/19 14:01:07;;;;;;;;;;;;;;;20.07;26.57;99408.13;68290;1283;1014850;-68
2024/03/19 14:04:10;;;;;;;;;;;;;;;20.28;26.42;99415.61;68281;1283;1015502;-68
2024/03/19 14:07:12;;;;;;;;;;;;;;;20.49;26.93;99411.23;68299;1283;1015443;-69
2024/03/19 14:10:15;;;;;;;;;;;;;;;20.50;26.41;99410.62;68301;1283;1015403;-69
2024/03/19 14:13:17;;;;;;;;;;;;;;;20.27;26.49;99413.20;68292;1283;1015491;-69
2024/03/19 14:16:20;;;;;;;;;;;;;;;20.41;26.59;99410.39;68294;1283;1015837;-64
2024/03/19 14:19:22;;;;;;;;;;;;;;;20.54;26.83;99414.88;68294;1283;1015924;-68
2024/03/19 14:22:25;;;;;;;;;;;;;;;20.43;26.57;99414.42;68296;1283;1016011;-63
2024/03/19 14:25:27;;;;;;;;;;;;;;;20.50;27.20;99410.95;68278;1283;1016196;-69
2024/03/19 14:28:30;;;;;;;;;;;;;;;20.27;26.87;99416.95;68280;1283;1016281;-69
2024/03/19 14:31:33;;;;;;;;;;;;;;;20.29;26.91;99422.98;68287;1283;1015589;-69
2024/03/19 14:34:36;;;;;;;;;;;;;;;19.97;27.14;99423.05;68290;1283;1016356;-68
2024/03/19 14:37:39;;;;;;;;;;;;;;;19.59;27.31;99427.34;68300;1283;1016091;-69
2024/03/19 14:40:42;;;;;;;;;;;;;;;19.55;27.72;99429.05;68288;1283;1015224;-63
2024/03/19 14:43:45;;;;;;;;;;;;;;;19.69;27.43;99433.55;68288;1283;1015912;-69
2024/03/19 14:46:47;;;;;;;;;;;;;;;19.85;27.28;99427.11;68288;1283;1015545;-64
2024/03/19 14:49:50;;;;;;;;;;;;;;;19.80;27.18;99438.61;68287;1283;1016315;-69
2024/03/19 14:52:52;;;;;;;;;;;;;;;19.71;27.33;99436.73;68287;1283;1015978;-69
2024/03/19 14:55:55;;;;;;;;;;;;;;;19.52;27.28;99435.93;68284;1283;1016074;-68
2024/03/19 14:58:57;;;;;;;;;;;;;;;19.75;26.99;99441.13;68293;1283;1016471;-69
2024/03/19 15:02:00;;;;;;;;;;;;;;;20.11;27.01;99438.14;68289;1283;1015923;-69
2024/03/19 15:05:03;;;;;;;;;;;;;;;20.26;27.27;99442.44;68288;1283;1015422;-69
2024/03/19 15:08:05;;;;;;;;;;;;;;;20.27;26.54;99431.30;68291;1283;1015228;-69
2024/03/19 15:11:08;;;;;;;;;;;;;;;19.73;27.33;99433.73;68286;1283;1016006;-69
2024/03/19 15:14:10;;;;;;;;;;;;;;;19.59;27.79;99432.26;68291;1283;1016629;-68
2024/03/19 15:17:13;;;;;;;;;;;;;;;20.27;26.83;99432.38;68293;1283;1015614;-65
2024/03/19 15:20:16;;;;;;;;;;;;;;;20.46;27.13;99430.50;68284;1283;1016062;-64
2024/03/19 15:23:19;;;;;;;;;;;;;;;21.05;26.59;99433.52;68285;1283;1015300;-63
2024/03/19 15:26:21;;;;;;;;;;;;;;;21.09;26.49;99430.52;68281;1284;1015961;-69
2024/03/19 15:29:24;;;;;;;;;;;;;;;20.73;26.69;99432.33;68292;1283;1016041;-69
2024/03/19 15:32:26;;;;;;;;;;;;;;;20.18;27.00;99439.23;68281;1283;1015893;-68
2024/03/19 15:35:30;;;;;;;;;;;;;;;19.01;28.05;99441.55;68282;1283;1015566;-69